createdAt,value
2023-05-01T00:00:57.285Z,69.29
2023-05-01T00:01:57.371Z,69.45
2023-05-01T00:02:57.569Z,69.60
2023-05-01T00:03:57.918Z,69.15
2023-05-01T00:04:57.770Z,69.12
2023-05-01T00:05:57.840Z,69.15
2023-05-01T00:06:57.937Z,69.00
2023-05-01T00:07:58.096Z,69.04
2023-05-01T00:08:58.164Z,68.74
2023-05-01T00:09:58.601Z,69.79
2023-05-01T00:10:58.390Z,69.27
2023-05-01T00:11:58.496Z,69.09
2023-05-01T00:12:58.592Z,68.88
2023-05-01T00:13:58.722Z,68.92
2023-05-01T00:14:58.844Z,68.86
2023-05-01T00:15:59.036Z,68.57
2023-05-01T00:16:59.227Z,68.50
2023-05-01T00:17:59.378Z,68.40
2023-05-01T00:18:59.420Z,68.72
2023-05-01T00:19:59.814Z,69.23
2023-05-01T00:20:59.736Z,68.79
2023-05-01T00:21:59.848Z,68.58
2023-05-01T00:22:59.977Z,68.82
2023-05-01T00:24:00.146Z,68.54
2023-05-01T00:25:00.249Z,68.62
2023-05-01T00:26:00.363Z,68.62
2023-05-01T00:27:00.452Z,68.41
2023-05-01T00:28:00.560Z,68.45
2023-05-01T00:29:00.690Z,68.47
2023-05-01T00:30:00.810Z,68.45
2023-05-01T00:31:00.929Z,68.44
2023-05-01T00:32:01.114Z,68.42
2023-05-01T00:33:01.284Z,68.36
2023-05-01T00:34:01.275Z,68.64
2023-05-01T00:35:01.367Z,68.71
2023-05-01T00:36:01.470Z,68.76
2023-05-01T00:37:01.576Z,69.10
2023-05-01T00:38:01.692Z,68.96
2023-05-01T00:39:01.821Z,69.02
2023-05-01T00:40:01.935Z,68.76
2023-05-01T00:41:02.042Z,69.52
2023-05-01T00:42:02.165Z,69.28
2023-05-01T00:43:02.264Z,69.66
2023-05-01T00:44:02.429Z,69.81
2023-05-01T00:45:02.507Z,69.94
2023-05-01T00:46:02.736Z,70.07
2023-05-01T00:47:02.754Z,69.86
2023-05-01T00:48:02.971Z,69.98
2023-05-01T00:49:03.016Z,69.85
2023-05-01T00:50:03.170Z,70.02
2023-05-01T00:51:03.273Z,70.15
2023-05-01T00:52:03.428Z,70.01
2023-05-01T00:53:03.510Z,70.00
2023-05-01T00:54:03.675Z,69.89
2023-05-01T00:55:03.809Z,70.14
2023-05-01T00:56:03.921Z,70.02
2023-05-01T00:57:04.078Z,70.16
2023-05-01T00:58:04.234Z,70.37
2023-05-01T00:59:04.412Z,70.40
2023-05-01T01:00:04.605Z,70.79
2023-05-01T01:01:04.780Z,70.18
2023-05-01T01:02:04.872Z,70.02
2023-05-01T01:03:05.099Z,70.66
2023-05-01T01:04:05.225Z,70.15
2023-05-01T01:05:05.342Z,70.20
2023-05-01T01:06:05.523Z,70.30
2023-05-01T01:07:05.674Z,70.55
2023-05-01T01:08:05.835Z,70.13
2023-05-01T01:09:06.015Z,69.85
2023-05-01T01:10:06.211Z,70.28
2023-05-01T01:11:06.362Z,70.31
2023-05-01T01:12:07.141Z,69.85
2023-05-01T01:13:06.682Z,69.81
2023-05-01T01:14:06.861Z,70.07
2023-05-01T01:15:07.020Z,70.86
2023-05-01T01:16:07.119Z,70.35
2023-05-01T01:17:07.471Z,70.16
2023-05-01T01:18:07.448Z,69.96
2023-05-01T01:19:07.592Z,69.84
2023-05-01T01:20:07.720Z,69.71
2023-05-01T01:21:07.833Z,69.59
2023-05-01T01:22:07.988Z,69.54
2023-05-01T01:23:08.230Z,69.85
2023-05-01T01:24:08.348Z,69.48
2023-05-01T01:25:08.514Z,69.14
2023-05-01T01:26:08.707Z,69.05
2023-05-01T01:27:08.865Z,69.28
2023-05-01T01:28:09.044Z,69.36
2023-05-01T01:29:09.209Z,68.95
2023-05-01T01:30:10.161Z,69.07
2023-05-01T01:31:09.590Z,68.76
2023-05-01T01:32:09.648Z,69.16
2023-05-01T01:33:09.869Z,69.24
2023-05-01T01:34:09.961Z,69.71
2023-05-01T01:35:10.135Z,69.58
2023-05-01T01:36:10.289Z,69.23
2023-05-01T01:37:10.441Z,69.31
2023-05-01T01:38:10.596Z,69.26
2023-05-01T01:39:10.783Z,68.91
2023-05-01T01:40:10.986Z,69.89
2023-05-01T01:41:11.183Z,69.94
2023-05-01T01:42:11.344Z,69.46
2023-05-01T01:43:11.420Z,69.45
2023-05-01T01:44:11.483Z,69.77
2023-05-01T01:45:11.680Z,69.79
2023-05-01T01:46:11.880Z,69.76
2023-05-01T01:47:11.967Z,69.63
2023-05-01T01:48:12.216Z,69.37
2023-05-01T01:49:12.371Z,69.15
2023-05-01T01:50:12.457Z,68.75
2023-05-01T01:51:12.605Z,69.52
2023-05-01T01:52:12.723Z,69.88
2023-05-01T01:53:13.643Z,69.34
2023-05-01T01:54:13.057Z,69.20
2023-05-01T01:55:13.218Z,68.95
2023-05-01T01:56:13.363Z,69.36
2023-05-01T01:57:13.517Z,69.31
2023-05-01T01:58:13.718Z,69.58
2023-05-01T01:59:13.861Z,69.62
2023-05-01T02:00:14.008Z,70.39
2023-05-01T02:01:14.732Z,70.39
2023-05-01T02:02:14.329Z,70.10
2023-05-01T02:03:14.550Z,70.04
2023-05-01T02:04:14.795Z,69.57
2023-05-01T02:05:14.768Z,69.36
2023-05-01T02:06:14.954Z,69.21
2023-05-01T02:07:15.072Z,69.49
2023-05-01T02:08:15.228Z,69.62
2023-05-01T02:09:15.350Z,71.03
2023-05-01T02:10:15.521Z,69.59
2023-05-01T02:11:15.701Z,68.77
2023-05-01T02:12:15.869Z,68.15
2023-05-01T02:13:16.030Z,67.74
2023-05-01T02:14:16.179Z,67.53
2023-05-01T02:15:16.334Z,67.63
2023-05-01T02:16:16.524Z,68.34
2023-05-01T02:17:16.650Z,67.96
2023-05-01T02:18:16.826Z,67.94
2023-05-01T02:19:16.973Z,67.66
2023-05-01T02:20:17.142Z,67.38
2023-05-01T02:21:17.321Z,66.67
2023-05-01T02:22:17.488Z,67.02
2023-05-01T02:23:17.712Z,67.36
2023-05-01T02:24:17.855Z,68.12
2023-05-01T02:25:18.658Z,68.67
2023-05-01T02:26:18.073Z,69.60
2023-05-01T02:27:19.170Z,69.67
2023-05-01T02:28:18.449Z,69.60
2023-05-01T02:29:18.602Z,69.33
2023-05-01T02:30:19.175Z,69.79
2023-05-01T02:31:18.852Z,70.22
2023-05-01T02:32:18.937Z,69.61
2023-05-01T02:33:19.094Z,69.81
2023-05-01T02:34:19.229Z,69.68
2023-05-01T02:35:19.376Z,69.45
2023-05-01T02:36:19.524Z,69.64
2023-05-01T02:37:19.650Z,68.92
2023-05-01T02:38:19.762Z,69.09
2023-05-01T02:39:19.879Z,68.32
2023-05-01T02:40:20.042Z,68.68
2023-05-01T02:41:20.196Z,68.71
2023-05-01T02:42:20.328Z,68.63
2023-05-01T02:43:20.486Z,68.86
2023-05-01T02:44:20.605Z,68.95
2023-05-01T02:45:20.787Z,69.14
2023-05-01T02:46:21.067Z,68.66
2023-05-01T02:47:21.123Z,68.20
2023-05-01T02:48:21.319Z,68.92
2023-05-01T02:49:21.496Z,68.63
2023-05-01T02:50:21.669Z,68.36
2023-05-01T02:51:21.812Z,68.41
2023-05-01T02:52:22.022Z,68.49
2023-05-01T02:53:22.069Z,68.15
2023-05-01T02:54:22.252Z,68.20
2023-05-01T02:55:22.420Z,68.11
2023-05-01T02:56:22.572Z,68.14
2023-05-01T02:57:22.767Z,69.36
2023-05-01T02:58:22.930Z,68.90
2023-05-01T02:59:23.066Z,68.63
2023-05-01T03:00:23.199Z,68.75
2023-05-01T03:01:23.379Z,68.39
2023-05-01T03:02:23.462Z,68.24
2023-05-01T03:03:23.661Z,69.38
2023-05-01T03:04:23.832Z,69.04
2023-05-01T03:05:23.932Z,68.58
2023-05-01T03:06:24.169Z,68.75
2023-05-01T03:07:24.221Z,69.10
2023-05-01T03:08:24.369Z,68.98
2023-05-01T03:09:24.558Z,68.72
2023-05-01T03:10:24.731Z,68.67
2023-05-01T03:11:24.879Z,68.84
2023-05-01T03:12:25.040Z,68.59
2023-05-01T03:13:25.331Z,68.96
2023-05-01T03:14:25.380Z,69.26
2023-05-01T03:15:25.569Z,69.32
2023-05-01T03:16:25.784Z,69.46
2023-05-01T03:17:25.913Z,69.69
2023-05-01T03:18:26.072Z,69.98
2023-05-01T03:19:26.244Z,70.89
2023-05-01T03:20:27.537Z,71.00
2023-05-01T03:21:26.661Z,70.77
2023-05-01T03:22:26.755Z,70.71
2023-05-01T03:23:26.956Z,70.50
2023-05-01T03:24:27.164Z,70.49
2023-05-01T03:25:27.385Z,70.81
2023-05-01T03:26:27.500Z,70.39
2023-05-01T03:27:27.684Z,69.96
2023-05-01T03:28:27.846Z,69.89
2023-05-01T03:29:27.984Z,69.95
2023-05-01T03:30:28.124Z,69.85
2023-05-01T03:31:28.263Z,69.72
2023-05-01T03:32:28.577Z,69.80
2023-05-01T03:33:28.721Z,69.89
2023-05-01T03:34:28.964Z,70.20
2023-05-01T03:35:29.198Z,69.98
2023-05-01T03:36:29.247Z,69.92
2023-05-01T03:37:29.392Z,69.71
2023-05-01T03:38:29.634Z,69.69
2023-05-01T03:39:29.720Z,69.49
2023-05-01T03:40:29.836Z,69.66
2023-05-01T03:41:29.993Z,69.92
2023-05-01T03:42:30.115Z,69.58
2023-05-01T03:43:30.282Z,70.33
2023-05-01T03:44:30.479Z,70.46
2023-05-01T03:45:30.603Z,70.40
2023-05-01T03:46:30.836Z,70.70
2023-05-01T03:47:30.946Z,70.76
2023-05-01T03:48:31.114Z,71.13
2023-05-01T03:49:31.264Z,71.40
2023-05-01T03:50:31.437Z,72.01
2023-05-01T03:51:31.625Z,71.44
2023-05-01T03:52:31.774Z,71.73
2023-05-01T03:53:31.915Z,71.95
2023-05-01T03:54:32.091Z,71.71
2023-05-01T03:55:32.294Z,71.54
2023-05-01T03:56:32.458Z,72.44
2023-05-01T03:57:32.641Z,71.77
2023-05-01T03:58:32.815Z,72.00
2023-05-01T03:59:32.995Z,72.00
2023-05-01T04:00:33.158Z,72.31
2023-05-01T04:01:33.331Z,72.80
2023-05-01T04:02:33.610Z,72.58
2023-05-01T04:03:33.764Z,72.92
2023-05-01T04:04:33.888Z,72.95
2023-05-01T04:05:34.018Z,72.41
2023-05-01T04:06:34.322Z,72.22
2023-05-01T04:07:34.367Z,71.93
2023-05-01T04:08:34.501Z,71.82
2023-05-01T04:09:34.627Z,72.27
2023-05-01T04:10:34.800Z,72.05
2023-05-01T04:11:34.983Z,71.99
2023-05-01T04:12:35.126Z,72.03
2023-05-01T04:13:35.300Z,71.82
2023-05-01T04:14:35.572Z,71.83
2023-05-01T04:15:35.625Z,72.33
2023-05-01T04:16:35.836Z,72.34
2023-05-01T04:17:36.005Z,72.12
2023-05-01T04:18:36.157Z,71.74
2023-05-01T04:19:36.325Z,71.47
2023-05-01T04:20:36.492Z,71.43
2023-05-01T04:21:36.657Z,71.23
2023-05-01T04:22:36.807Z,71.19
2023-05-01T04:23:36.955Z,71.05
2023-05-01T04:24:37.121Z,71.82
2023-05-01T04:25:37.361Z,71.98
2023-05-01T04:26:37.742Z,72.00
2023-05-01T04:27:37.789Z,71.96
2023-05-01T04:28:37.884Z,72.16
2023-05-01T04:29:38.105Z,71.91
2023-05-01T04:30:38.188Z,71.61
2023-05-01T04:31:38.426Z,71.34
2023-05-01T04:32:38.578Z,71.48
2023-05-01T04:33:38.631Z,71.56
2023-05-01T04:34:38.768Z,71.28
2023-05-01T04:35:38.940Z,70.90
2023-05-01T04:36:39.082Z,71.74
2023-05-01T04:37:39.238Z,71.51
2023-05-01T04:38:39.418Z,70.90
2023-05-01T04:39:39.602Z,70.72
2023-05-01T04:40:39.737Z,70.39
2023-05-01T04:41:39.873Z,70.76
2023-05-01T04:42:39.997Z,70.28
2023-05-01T04:43:40.134Z,70.18
2023-05-01T04:44:40.301Z,70.10
2023-05-01T04:45:40.459Z,70.00
2023-05-01T04:46:40.623Z,69.61
2023-05-01T04:47:40.756Z,70.03
2023-05-01T04:48:40.945Z,69.90
2023-05-01T04:49:41.081Z,69.70
2023-05-01T04:50:41.223Z,69.43
2023-05-01T04:51:41.412Z,70.14
2023-05-01T04:52:41.573Z,69.68
2023-05-01T04:53:41.750Z,70.15
2023-05-01T04:54:41.822Z,69.62
2023-05-01T04:55:41.991Z,69.89
2023-05-01T04:56:42.173Z,70.14
2023-05-01T04:57:42.454Z,71.36
2023-05-01T04:58:42.498Z,70.54
2023-05-01T04:59:42.528Z,70.15
2023-05-01T05:00:42.771Z,70.35
2023-05-01T05:01:42.942Z,70.27
2023-05-01T05:02:43.179Z,69.85
2023-05-01T05:03:43.362Z,70.20
2023-05-01T05:04:44.210Z,70.14
2023-05-01T05:05:43.469Z,69.99
2023-05-01T05:06:43.723Z,69.88
2023-05-01T05:07:43.758Z,69.68
2023-05-01T05:08:43.855Z,69.98
2023-05-01T05:09:43.949Z,70.25
2023-05-01T05:10:44.108Z,70.05
2023-05-01T05:11:44.213Z,70.10
2023-05-01T05:12:44.335Z,69.77
2023-05-01T05:13:44.463Z,70.10
2023-05-01T05:14:44.577Z,70.59
2023-05-01T05:15:44.729Z,70.15
2023-05-01T05:16:44.850Z,70.95
2023-05-01T05:17:45.032Z,71.00
2023-05-01T05:18:45.159Z,70.59
2023-05-01T05:19:45.362Z,70.72
2023-05-01T05:20:45.527Z,70.97
2023-05-01T05:21:45.707Z,70.23
2023-05-01T05:22:45.835Z,70.75
2023-05-01T05:23:46.003Z,70.57
2023-05-01T05:24:46.177Z,70.21
2023-05-01T05:25:46.355Z,70.44
2023-05-01T05:26:46.586Z,70.43
2023-05-01T05:27:46.725Z,70.03
2023-05-01T05:28:46.874Z,69.96
2023-05-01T05:29:47.050Z,69.75
2023-05-01T05:30:47.152Z,69.67
2023-05-01T05:31:47.395Z,69.51
2023-05-01T05:32:47.564Z,69.62
2023-05-01T05:33:50.311Z,69.82
2023-05-01T05:34:48.099Z,69.76
2023-05-01T05:35:48.282Z,69.28
2023-05-01T05:36:48.442Z,69.73
2023-05-01T05:37:48.559Z,69.24
2023-05-01T05:38:48.786Z,69.42
2023-05-01T05:39:48.857Z,69.22
2023-05-01T05:40:49.032Z,69.10
2023-05-01T05:41:49.258Z,69.22
2023-05-01T05:42:50.235Z,69.28
2023-05-01T05:43:49.396Z,68.90
2023-05-01T05:44:49.465Z,69.22
2023-05-01T05:45:49.645Z,69.57
2023-05-01T05:46:49.796Z,69.48
2023-05-01T05:47:50.764Z,69.37
2023-05-01T05:48:49.943Z,69.37
2023-05-01T05:49:50.078Z,69.10
2023-05-01T05:50:50.190Z,69.13
2023-05-01T05:51:50.352Z,68.89
2023-05-01T05:52:50.504Z,68.52
2023-05-01T05:53:51.210Z,68.29
2023-05-01T05:54:50.733Z,68.19
2023-05-01T05:55:50.836Z,68.15
2023-05-01T05:56:50.969Z,67.80
2023-05-01T05:57:51.088Z,68.35
2023-05-01T05:58:51.197Z,68.36
2023-05-01T05:59:51.400Z,68.17
2023-05-01T06:00:51.439Z,67.77
2023-05-01T06:01:51.538Z,67.57
2023-05-01T06:02:51.691Z,67.85
2023-05-01T06:03:51.861Z,68.08
2023-05-01T06:04:52.005Z,68.07
2023-05-01T06:05:52.267Z,67.74
2023-05-01T06:06:52.199Z,68.02
2023-05-01T06:07:52.250Z,67.67
2023-05-01T06:08:52.370Z,68.21
2023-05-01T06:09:52.484Z,67.79
2023-05-01T06:10:52.600Z,67.94
2023-05-01T06:11:52.845Z,67.70
2023-05-01T06:13:00.560Z,67.12
2023-05-01T06:13:54.007Z,66.94
2023-05-01T06:14:53.090Z,66.92
2023-05-01T06:15:53.265Z,66.91
2023-05-01T06:16:53.329Z,66.30
2023-05-01T06:17:54.276Z,66.33
2023-05-01T06:18:53.631Z,66.75
2023-05-01T06:19:53.961Z,67.21
2023-05-01T06:20:53.881Z,66.67
2023-05-01T06:21:54.047Z,66.82
2023-05-01T06:22:54.158Z,67.22
2023-05-01T06:23:55.254Z,67.27
2023-05-01T06:24:54.402Z,66.89
2023-05-01T06:25:54.579Z,66.61
2023-05-01T06:26:54.741Z,66.52
2023-05-01T06:27:54.913Z,65.81
2023-05-01T06:28:55.016Z,65.57
2023-05-01T06:29:55.374Z,65.31
2023-05-01T06:30:55.318Z,66.24
2023-05-01T06:31:55.812Z,66.25
2023-05-01T06:32:55.729Z,66.41
2023-05-01T06:33:55.811Z,65.99
2023-05-01T06:34:55.977Z,65.70
2023-05-01T06:35:56.086Z,65.98
2023-05-01T06:36:57.296Z,65.50
2023-05-01T06:37:56.386Z,65.44
2023-05-01T06:38:56.507Z,64.88
2023-05-01T06:39:56.771Z,64.32
2023-05-01T06:40:56.740Z,64.19
2023-05-01T06:41:56.873Z,63.94
2023-05-01T06:42:56.982Z,63.85
2023-05-01T06:43:57.111Z,63.38
2023-05-01T06:44:57.231Z,63.42
2023-05-01T06:45:58.214Z,63.75
2023-05-01T06:46:57.446Z,62.99
2023-05-01T06:47:57.594Z,62.73
2023-05-01T06:48:57.672Z,62.34
2023-05-01T06:49:57.941Z,62.19
2023-05-01T06:50:57.958Z,62.38
2023-05-01T06:51:58.026Z,62.02
2023-05-01T06:52:58.171Z,61.76
2023-05-01T06:53:58.335Z,62.23
2023-05-01T06:54:58.485Z,61.78
2023-05-01T06:55:58.574Z,61.94
2023-05-01T06:56:59.151Z,62.38
2023-05-01T06:58:01.003Z,61.72
2023-05-01T06:58:59.021Z,61.17
2023-05-01T06:59:59.307Z,60.68
2023-05-01T07:00:59.232Z,60.69
2023-05-01T07:01:59.774Z,60.39
2023-05-01T07:02:59.487Z,59.89
2023-05-01T07:03:59.748Z,59.70
2023-05-01T07:05:00.327Z,59.81
2023-05-01T07:05:59.827Z,60.23
2023-05-01T07:06:59.850Z,59.25
2023-05-01T07:08:01.639Z,59.27
2023-05-01T07:09:00.744Z,58.67
2023-05-01T07:10:00.783Z,58.56
2023-05-01T07:11:00.352Z,58.39
2023-05-01T07:12:01.532Z,57.68
2023-05-01T07:13:00.637Z,57.66
2023-05-01T07:14:00.753Z,57.43
2023-05-01T07:15:00.859Z,57.13
2023-05-01T07:16:01.068Z,57.67
2023-05-01T07:17:01.451Z,57.50
2023-05-01T07:18:01.243Z,57.51
2023-05-01T07:19:01.380Z,57.65
2023-05-01T07:20:01.514Z,57.08
2023-05-01T07:21:01.617Z,56.77
2023-05-01T07:22:01.751Z,56.19
2023-05-01T07:23:01.841Z,55.78
2023-05-01T07:24:01.921Z,55.81
2023-05-01T07:25:02.071Z,55.45
2023-05-01T07:26:02.140Z,55.90
2023-05-01T07:27:02.261Z,55.50
2023-05-01T07:28:02.469Z,54.71
2023-05-01T07:29:02.555Z,54.65
2023-05-01T07:30:02.588Z,53.96
2023-05-01T07:31:02.757Z,54.04
2023-05-01T07:32:02.981Z,54.36
2023-05-01T07:33:04.900Z,53.76
2023-05-01T07:34:03.097Z,54.20
2023-05-01T07:35:03.201Z,53.59
2023-05-01T07:36:03.377Z,53.63
2023-05-01T07:37:03.733Z,53.94
2023-05-01T07:38:03.721Z,53.64
2023-05-01T07:39:03.775Z,54.88
2023-05-01T07:40:03.893Z,54.61
2023-05-01T07:41:04.140Z,54.61
2023-05-01T07:42:04.168Z,55.49
2023-05-01T07:43:04.323Z,55.65
2023-05-01T07:44:04.432Z,55.86
2023-05-01T07:45:04.586Z,55.23
2023-05-01T07:46:04.716Z,54.64
2023-05-01T07:47:04.932Z,55.08
2023-05-01T07:48:05.028Z,55.12
2023-05-01T07:49:05.077Z,55.80
2023-05-01T07:50:05.328Z,54.85
2023-05-01T07:51:05.393Z,55.13
2023-05-01T07:52:05.510Z,53.96
2023-05-01T07:53:05.658Z,53.51
2023-05-01T07:54:05.828Z,55.56
2023-05-01T07:55:05.971Z,55.50
2023-05-01T07:56:06.203Z,56.40
2023-05-01T07:57:06.353Z,56.93
2023-05-01T07:58:06.459Z,55.51
2023-05-01T07:59:06.598Z,56.70
2023-05-01T08:00:06.782Z,56.53
2023-05-01T08:01:06.921Z,56.02
2023-05-01T08:02:07.138Z,55.85
2023-05-01T08:03:07.481Z,56.12
2023-05-01T08:04:10.685Z,54.97
2023-05-01T08:05:07.373Z,54.43
2023-05-01T08:06:07.647Z,55.34
2023-05-01T08:07:07.550Z,53.21
2023-05-01T08:08:07.670Z,53.13
2023-05-01T08:09:08.270Z,52.95
2023-05-01T08:10:07.883Z,53.06
2023-05-01T08:11:08.011Z,52.12
2023-05-01T08:12:08.017Z,51.37
2023-05-01T08:13:08.181Z,53.11
2023-05-01T08:14:08.218Z,53.73
2023-05-01T08:15:08.340Z,52.53
2023-05-01T08:16:08.559Z,51.45
2023-05-01T08:17:08.544Z,52.04
2023-05-01T08:18:08.793Z,51.63
2023-05-01T08:19:09.234Z,51.66
2023-05-01T08:20:08.838Z,51.10
2023-05-01T08:21:09.042Z,52.01
2023-05-01T08:22:09.096Z,52.26
2023-05-01T08:23:09.166Z,50.41
2023-05-01T08:24:09.220Z,50.13
2023-05-01T08:25:09.357Z,49.78
2023-05-01T08:26:09.408Z,49.99
2023-05-01T08:27:09.534Z,50.25
2023-05-01T08:28:09.627Z,49.90
2023-05-01T08:29:09.743Z,50.55
2023-05-01T08:30:09.804Z,50.52
2023-05-01T08:31:09.904Z,51.65
2023-05-01T08:32:10.001Z,50.43
2023-05-01T08:33:10.141Z,50.33
2023-05-01T08:34:10.177Z,50.34
2023-05-01T08:35:10.221Z,50.36
2023-05-01T08:36:10.311Z,50.77
2023-05-01T08:37:10.396Z,52.00
2023-05-01T08:38:11.253Z,52.15
2023-05-01T08:39:10.561Z,52.60
2023-05-01T08:40:10.655Z,53.04
2023-05-01T08:41:10.727Z,53.62
2023-05-01T08:42:10.832Z,53.91
2023-05-01T08:43:10.998Z,52.79
2023-05-01T08:44:11.978Z,52.17
2023-05-01T08:45:11.242Z,51.89
2023-05-01T08:46:11.652Z,51.09
2023-05-01T08:47:13.370Z,50.67
2023-05-01T08:48:11.914Z,50.90
2023-05-01T08:49:11.871Z,49.97
2023-05-01T08:50:12.766Z,50.57
2023-05-01T08:51:12.767Z,49.12
2023-05-01T08:52:12.784Z,49.33
2023-05-01T08:53:12.272Z,48.86
2023-05-01T08:54:12.361Z,48.66
2023-05-01T08:55:12.454Z,48.65
2023-05-01T08:56:12.585Z,48.89
2023-05-01T08:57:12.681Z,48.20
2023-05-01T08:58:12.759Z,48.85
2023-05-01T08:59:12.914Z,49.14
2023-05-01T09:00:12.987Z,48.82
2023-05-01T09:01:13.194Z,48.52
2023-05-01T09:02:13.406Z,48.27
2023-05-01T09:03:13.436Z,47.52
2023-05-01T09:04:13.529Z,47.10
2023-05-01T09:05:14.256Z,47.36
2023-05-01T09:06:13.682Z,46.61
2023-05-01T09:07:13.715Z,46.11
2023-05-01T09:08:13.832Z,47.45
2023-05-01T09:09:13.903Z,46.36
2023-05-01T09:10:13.953Z,46.80
2023-05-01T09:11:14.041Z,46.59
2023-05-01T09:12:14.177Z,46.93
2023-05-01T09:13:14.343Z,46.55
2023-05-01T09:14:14.352Z,45.27
2023-05-01T09:15:14.438Z,46.43
2023-05-01T09:16:14.585Z,46.60
2023-05-01T09:17:14.642Z,47.40
2023-05-01T09:18:14.904Z,47.29
2023-05-01T09:19:14.848Z,47.36
2023-05-01T09:20:14.912Z,46.94
2023-05-01T09:21:15.012Z,46.66
2023-05-01T09:22:15.117Z,47.19
2023-05-01T09:23:15.253Z,46.49
2023-05-01T09:24:16.262Z,46.36
2023-05-01T09:25:15.471Z,45.78
2023-05-01T09:26:15.544Z,46.15
2023-05-01T09:27:15.627Z,46.54
2023-05-01T09:28:15.762Z,46.57
2023-05-01T09:29:15.878Z,46.74
2023-05-01T09:30:16.057Z,47.06
2023-05-01T09:31:16.083Z,46.43
2023-05-01T09:32:16.447Z,47.90
2023-05-01T09:33:16.365Z,48.41
2023-05-01T09:34:16.440Z,48.58
2023-05-01T09:35:16.564Z,47.85
2023-05-01T09:36:16.775Z,48.40
2023-05-01T09:37:16.791Z,48.25
2023-05-01T09:38:17.015Z,49.55
2023-05-01T09:39:17.040Z,48.67
2023-05-01T09:40:17.162Z,48.55
2023-05-01T09:41:17.279Z,48.49
2023-05-01T09:42:17.469Z,47.60
2023-05-01T09:43:17.407Z,48.52
2023-05-01T09:44:17.485Z,47.52
2023-05-01T09:45:17.561Z,49.44
2023-05-01T09:46:17.758Z,48.66
2023-05-01T09:47:17.750Z,48.59
2023-05-01T09:48:17.797Z,49.40
2023-05-01T09:49:17.875Z,49.52
2023-05-01T09:50:17.961Z,49.98
2023-05-01T09:51:18.140Z,49.95
2023-05-01T09:52:18.113Z,49.64
2023-05-01T09:53:18.229Z,49.10
2023-05-01T09:54:18.298Z,48.80
2023-05-01T09:55:18.364Z,48.94
2023-05-01T09:56:18.480Z,49.99
2023-05-01T09:57:18.598Z,49.74
2023-05-01T09:58:18.723Z,48.97
2023-05-01T09:59:18.831Z,49.02
2023-05-01T10:00:18.941Z,48.34
2023-05-01T10:01:19.082Z,48.38
2023-05-01T10:02:19.219Z,48.29
2023-05-01T10:03:19.327Z,48.33
2023-05-01T10:04:19.419Z,48.50
2023-05-01T10:05:19.548Z,47.43
2023-05-01T10:06:19.648Z,47.66
2023-05-01T10:07:19.823Z,47.40
2023-05-01T10:08:19.985Z,47.03
2023-05-01T10:09:20.065Z,46.55
2023-05-01T10:10:20.159Z,47.06
2023-05-01T10:11:20.334Z,47.23
2023-05-01T10:12:20.433Z,48.21
2023-05-01T10:13:20.637Z,48.09
2023-05-01T10:14:20.661Z,49.14
2023-05-01T10:15:25.937Z,47.65
2023-05-01T10:16:21.980Z,47.78
2023-05-01T10:17:21.083Z,47.76
2023-05-01T10:18:21.159Z,47.15
2023-05-01T10:19:21.223Z,47.82
2023-05-01T10:20:21.260Z,47.18
2023-05-01T10:21:21.347Z,47.07
2023-05-01T10:22:21.401Z,47.05
2023-05-01T10:23:21.479Z,47.59
2023-05-01T10:24:21.621Z,47.32
2023-05-01T10:25:21.675Z,47.11
2023-05-01T10:26:21.753Z,47.23
2023-05-01T10:27:21.877Z,47.04
2023-05-01T10:28:21.920Z,48.27
2023-05-01T10:29:22.056Z,47.51
2023-05-01T10:30:22.150Z,46.86
2023-05-01T10:31:22.360Z,47.29
2023-05-01T10:32:22.350Z,47.57
2023-05-01T10:33:22.476Z,47.75
2023-05-01T10:34:22.514Z,47.26
2023-05-01T10:35:23.314Z,47.15
2023-05-01T10:36:22.969Z,48.95
2023-05-01T10:37:23.025Z,49.05
2023-05-01T10:38:23.097Z,49.44
2023-05-01T10:39:23.198Z,48.66
2023-05-01T10:40:23.272Z,48.92
2023-05-01T10:41:24.278Z,48.45
2023-05-01T10:42:23.376Z,47.65
2023-05-01T10:43:23.415Z,48.27
2023-05-01T10:44:24.270Z,47.56
2023-05-01T10:45:23.583Z,49.20
2023-05-01T10:46:23.702Z,50.45
2023-05-01T10:47:23.731Z,49.35
2023-05-01T10:48:23.853Z,49.07
2023-05-01T10:49:23.904Z,49.30
2023-05-01T10:50:24.021Z,48.79
2023-05-01T10:51:26.526Z,48.74
2023-05-01T10:52:24.214Z,49.02
2023-05-01T10:53:24.252Z,49.14
2023-05-01T10:54:25.279Z,49.27
2023-05-01T10:55:24.351Z,49.23
2023-05-01T10:56:24.425Z,50.52
2023-05-01T10:57:24.473Z,51.08
2023-05-01T10:58:24.562Z,50.79
2023-05-01T10:59:25.284Z,50.83
2023-05-01T11:00:24.660Z,49.62
2023-05-01T11:01:24.800Z,50.67
2023-05-01T11:02:24.862Z,53.23
2023-05-01T11:03:24.904Z,51.45
2023-05-01T11:04:25.009Z,51.23
2023-05-01T11:05:38.056Z,51.54
2023-05-01T11:06:26.403Z,51.52
2023-05-01T11:07:25.179Z,51.58
2023-05-01T11:08:25.252Z,50.85
2023-05-01T11:09:25.360Z,52.18
2023-05-01T11:10:25.423Z,51.14
2023-05-01T11:11:25.572Z,51.47
2023-05-01T11:12:25.674Z,52.18
2023-05-01T11:13:25.702Z,51.29
2023-05-01T11:14:25.791Z,50.58
2023-05-01T11:15:25.884Z,51.62
2023-05-01T11:16:26.853Z,51.68
2023-05-01T11:17:26.078Z,51.62
2023-05-01T11:18:26.197Z,50.19
2023-05-01T11:19:28.288Z,51.33
2023-05-01T11:20:26.391Z,50.31
2023-05-01T11:21:26.398Z,49.78
2023-05-01T11:22:26.470Z,49.70
2023-05-01T11:23:26.681Z,50.43
2023-05-01T11:24:26.666Z,49.31
2023-05-01T11:25:26.786Z,48.94
2023-05-01T11:26:26.823Z,48.57
2023-05-01T11:27:26.881Z,47.81
2023-05-01T11:28:26.945Z,48.04
2023-05-01T11:29:26.978Z,47.35
2023-05-01T11:30:27.055Z,46.53
2023-05-01T11:31:27.216Z,46.49
2023-05-01T11:32:27.384Z,46.32
2023-05-01T11:33:27.262Z,45.80
2023-05-01T11:34:27.377Z,45.42
2023-05-01T11:35:28.271Z,44.97
2023-05-01T11:36:27.418Z,45.39
2023-05-01T11:37:27.480Z,44.55
2023-05-01T11:38:27.489Z,43.95
2023-05-01T11:39:27.528Z,44.18
2023-05-01T11:40:27.586Z,44.03
2023-05-01T11:41:27.659Z,43.37
2023-05-01T11:42:27.701Z,42.32
2023-05-01T11:43:27.737Z,42.23
2023-05-01T11:44:27.741Z,42.82
2023-05-01T11:45:27.819Z,42.63
2023-05-01T11:46:27.969Z,43.08
2023-05-01T11:47:28.015Z,41.79
2023-05-01T11:48:27.941Z,40.63
2023-05-01T11:49:27.964Z,41.04
2023-05-01T11:50:27.988Z,42.23
2023-05-01T11:51:28.074Z,41.58
2023-05-01T11:52:28.106Z,40.73
2023-05-01T11:53:28.190Z,40.55
2023-05-01T11:54:28.792Z,39.60
2023-05-01T11:55:28.238Z,39.58
2023-05-01T11:56:28.276Z,39.25
2023-05-01T11:57:28.322Z,40.15
2023-05-01T11:58:28.784Z,39.40
2023-05-01T11:59:28.462Z,38.59
2023-05-01T12:00:28.483Z,39.21
2023-05-01T12:01:28.514Z,40.03
2023-05-01T12:02:28.675Z,38.78
2023-05-01T12:03:28.921Z,39.35
2023-05-01T12:04:31.559Z,39.63
2023-05-01T12:05:28.724Z,38.72
2023-05-01T12:06:28.805Z,40.60
2023-05-01T12:07:28.801Z,39.49
2023-05-01T12:08:28.833Z,40.06
2023-05-01T12:09:28.873Z,40.08
2023-05-01T12:10:28.869Z,39.38
2023-05-01T12:11:28.928Z,38.97
2023-05-01T12:12:29.005Z,38.82
2023-05-01T12:13:29.352Z,39.12
2023-05-01T12:14:29.087Z,39.30
2023-05-01T12:15:29.087Z,39.27
2023-05-01T12:16:29.140Z,38.42
2023-05-01T12:17:29.247Z,39.24
2023-05-01T12:18:29.191Z,38.60
2023-05-01T12:19:29.229Z,38.78
2023-05-01T12:20:29.349Z,38.01
2023-05-01T12:21:29.390Z,38.92
2023-05-01T12:22:29.460Z,39.47
2023-05-01T12:23:29.464Z,38.28
2023-05-01T12:24:29.507Z,37.78
2023-05-01T12:25:29.462Z,38.40
2023-05-01T12:26:29.469Z,37.19
2023-05-01T12:27:29.485Z,36.57
2023-05-01T12:28:29.498Z,37.68
2023-05-01T12:29:29.492Z,37.96
2023-05-01T12:30:29.534Z,37.59
2023-05-01T12:31:29.671Z,36.69
2023-05-01T12:32:29.600Z,36.91
2023-05-01T12:33:31.612Z,36.82
2023-05-01T12:34:29.619Z,36.84
2023-05-01T12:35:29.627Z,37.16
2023-05-01T12:36:30.316Z,35.45
2023-05-01T12:37:29.667Z,35.85
2023-05-01T12:38:29.672Z,36.92
2023-05-01T12:39:29.704Z,36.97
2023-05-01T12:40:29.790Z,37.18
2023-05-01T12:41:29.781Z,36.58
2023-05-01T12:42:30.864Z,36.39
2023-05-01T12:43:29.983Z,36.61
2023-05-01T12:44:30.007Z,37.20
2023-05-01T12:45:30.049Z,36.76
2023-05-01T12:46:30.212Z,36.76
2023-05-01T12:47:30.196Z,36.79
2023-05-01T12:48:30.848Z,36.55
2023-05-01T12:49:30.241Z,36.08
2023-05-01T12:50:30.289Z,35.97
2023-05-01T12:51:30.380Z,35.77
2023-05-01T12:52:30.459Z,35.56
2023-05-01T12:53:30.866Z,37.26
2023-05-01T12:54:30.503Z,37.04